createdAt,value
2019-04-03T00:01:00.679Z,12.47
2019-04-03T00:03:29.633Z,12.90
2019-04-03T00:16:42.111Z,13.07
2019-04-03T00:19:11.122Z,13.87
2019-04-03T00:21:40.017Z,13.93
2019-04-03T00:24:08.926Z,13.97
2019-04-03T00:26:38.418Z,13.63
2019-04-03T00:29:07.317Z,13.80
2019-04-03T00:31:36.155Z,14.93
2019-04-03T00:34:05.095Z,15.17
2019-04-03T00:36:33.998Z,14.67
2019-04-03T00:39:02.816Z,14.57
2019-04-03T00:41:31.654Z,14.90
2019-04-03T00:44:00.517Z,15.17
2019-04-03T00:46:29.441Z,14.73
2019-04-03T00:48:58.249Z,15.27
2019-04-03T00:51:27.933Z,16.03
2019-04-03T00:53:57.836Z,15.67
2019-04-03T00:56:27.007Z,15.63
2019-04-03T00:58:56.652Z,15.83
2019-04-03T01:01:26.547Z,15.23
2019-04-03T01:03:56.842Z,15.93
2019-04-03T01:06:28.282Z,15.83
2019-04-03T01:08:59.424Z,15.57
2019-04-03T01:11:28.876Z,16.40
2019-04-03T01:13:59.742Z,15.67
2019-04-03T01:16:30.824Z,16.90
2019-04-03T01:18:59.968Z,16.00
2019-04-03T01:21:28.800Z,16.33
2019-04-03T01:23:59.371Z,16.33
2019-04-03T01:26:28.291Z,16.13
2019-04-03T01:28:57.132Z,15.57
2019-04-03T01:31:25.999Z,15.87
2019-04-03T01:33:54.953Z,16.23
2019-04-03T01:36:23.785Z,17.73
2019-04-03T01:38:52.744Z,15.10
2019-04-03T01:41:21.679Z,15.70
2019-04-03T01:43:53.155Z,15.60
2019-04-03T01:46:21.143Z,15.60
2019-04-03T01:48:49.989Z,15.10
2019-04-03T01:51:18.821Z,15.73
2019-04-03T01:53:47.695Z,16.17
2019-04-03T01:56:16.630Z,15.93
2019-04-03T01:58:45.858Z,16.00
2019-04-03T02:01:14.769Z,15.43
2019-04-03T02:03:43.714Z,15.77
2019-04-03T02:06:13.593Z,15.30
2019-04-03T02:08:44.920Z,15.90
2019-04-03T02:11:13.761Z,15.53
2019-04-03T02:13:42.679Z,14.97
2019-04-03T02:16:11.631Z,14.80
2019-04-03T02:18:40.844Z,16.67
2019-04-03T02:21:09.735Z,15.60
2019-04-03T02:23:38.744Z,15.07
2019-04-03T02:26:07.710Z,17.27
2019-04-03T02:28:36.580Z,15.87
2019-04-03T02:31:05.764Z,15.77
2019-04-03T02:33:34.572Z,16.83
2019-04-03T02:36:03.466Z,15.47
2019-04-03T02:38:32.330Z,15.97
2019-04-03T02:41:03.487Z,15.50
2019-04-03T02:43:32.024Z,15.47
2019-04-03T02:46:01.293Z,15.67
2019-04-03T02:48:30.435Z,14.87
2019-04-03T02:50:59.790Z,16.70
2019-04-03T02:53:30.521Z,16.97
2019-04-03T02:56:02.208Z,15.13
2019-04-03T02:58:31.412Z,16.07
2019-04-03T03:01:00.435Z,15.93
2019-04-03T03:03:29.218Z,15.63
2019-04-03T03:06:00.603Z,16.63
2019-04-03T03:08:29.099Z,16.27
2019-04-03T03:10:58.251Z,15.47
2019-04-03T03:13:28.167Z,15.73
2019-04-03T03:15:57.938Z,16.23
2019-04-03T03:18:28.350Z,15.77
2019-04-03T03:20:57.898Z,15.30
2019-04-03T03:23:27.079Z,14.27
2019-04-03T03:25:58.054Z,14.73
2019-04-03T03:28:27.843Z,15.90
2019-04-03T03:31:03.651Z,14.63
2019-04-03T03:33:35.483Z,15.47
2019-04-03T03:36:00.327Z,14.90
2019-04-03T03:38:29.812Z,15.23
2019-04-03T03:40:59.390Z,15.03
2019-04-03T03:43:29.115Z,14.53
2019-04-03T03:46:00.217Z,15.53
2019-04-03T03:48:29.977Z,15.07
2019-04-03T03:51:01.000Z,14.33
2019-04-03T03:53:33.669Z,15.07
2019-04-03T03:56:02.971Z,15.47
2019-04-03T03:58:32.436Z,14.50
2019-04-03T04:01:01.547Z,14.93
2019-04-03T04:03:30.747Z,14.83
2019-04-03T04:05:59.966Z,14.60
2019-04-03T04:08:31.905Z,14.77
2019-04-03T04:11:02.208Z,15.30
2019-04-03T04:13:31.090Z,14.27
2019-04-03T04:16:04.180Z,14.57
2019-04-03T04:18:31.375Z,15.57
2019-04-03T04:21:00.448Z,14.43
2019-04-03T04:23:30.463Z,14.43
2019-04-03T04:26:01.534Z,15.17
2019-04-03T04:28:30.813Z,14.00
2019-04-03T04:31:00.283Z,14.43
2019-04-03T04:33:29.621Z,14.53
2019-04-03T04:35:58.519Z,14.80
2019-04-03T04:38:27.486Z,14.43
2019-04-03T04:40:56.405Z,14.57
2019-04-03T04:43:25.419Z,15.20
2019-04-03T04:45:54.351Z,15.23
2019-04-03T04:48:23.683Z,13.73
2019-04-03T04:51:25.342Z,14.97
2019-04-03T04:53:53.344Z,13.37
2019-04-03T04:56:25.133Z,13.97
2019-04-03T04:58:54.181Z,14.87
2019-04-03T05:01:23.124Z,14.50
2019-04-03T05:03:55.232Z,14.70
2019-04-03T05:06:24.469Z,14.73
2019-04-03T05:08:53.803Z,14.57
2019-04-03T05:11:22.789Z,15.47
2019-04-03T05:13:51.693Z,14.23
2019-04-03T05:16:25.063Z,15.47
2019-04-03T05:18:54.777Z,15.33
2019-04-03T05:21:23.861Z,14.97
2019-04-03T05:23:55.477Z,14.50
2019-04-03T05:26:23.442Z,14.83
2019-04-03T05:28:55.843Z,14.60
2019-04-03T05:31:24.264Z,14.27
2019-04-03T05:33:53.214Z,15.63
2019-04-03T05:36:22.562Z,15.40
2019-04-03T05:38:53.459Z,15.23
2019-04-03T05:41:22.181Z,15.43
2019-04-03T05:43:51.208Z,15.67
2019-04-03T05:46:20.056Z,15.50
2019-04-03T05:48:49.316Z,14.53
2019-04-03T05:51:18.343Z,15.60
2019-04-03T05:53:47.251Z,15.40
2019-04-03T05:56:16.296Z,15.13
2019-04-03T05:58:55.593Z,16.17
2019-04-03T06:01:15.818Z,16.27
2019-04-03T06:03:46.485Z,16.30
2019-04-03T06:06:16.068Z,16.10
2019-04-03T06:08:45.330Z,15.27
2019-04-03T06:11:14.430Z,15.37
2019-04-03T06:13:43.338Z,15.97
2019-04-03T06:16:12.279Z,15.87
2019-04-03T06:18:47.790Z,16.17
2019-04-03T06:21:17.183Z,17.37
2019-04-03T06:23:46.369Z,15.83
2019-04-03T06:26:15.439Z,16.43
2019-04-03T06:28:46.296Z,16.30
2019-04-03T06:31:15.103Z,16.17
2019-04-03T06:33:45.452Z,16.33
2019-04-03T06:36:16.873Z,18.30
2019-04-03T06:38:45.072Z,17.90
2019-04-03T06:41:14.014Z,17.37
2019-04-03T06:43:43.111Z,17.33
2019-04-03T06:46:12.014Z,16.07
2019-04-03T06:48:41.187Z,16.70
2019-04-03T06:51:10.368Z,16.60
2019-04-03T06:53:44.870Z,16.57
2019-04-03T06:56:15.808Z,17.33
2019-04-03T06:58:47.293Z,16.37
2019-04-03T07:11:06.147Z,16.63
2019-04-03T07:13:35.231Z,17.07
2019-04-03T07:16:04.264Z,17.77
2019-04-03T07:18:34.523Z,15.07
2019-04-03T07:21:03.889Z,15.90
2019-04-03T07:23:32.861Z,16.47
2019-04-03T07:26:02.948Z,15.93
2019-04-03T07:28:32.614Z,15.77
2019-04-03T07:31:01.536Z,15.50
2019-04-03T07:33:30.676Z,15.27
2019-04-03T07:35:59.700Z,14.50
2019-04-03T07:38:28.909Z,13.87
2019-04-03T07:40:57.942Z,14.77
2019-04-03T07:43:27.583Z,14.87
2019-04-03T07:45:56.951Z,14.30
2019-04-03T07:48:26.214Z,14.17
2019-04-03T07:50:55.108Z,13.43
2019-04-03T07:53:24.041Z,13.83
2019-04-03T07:55:55.116Z,15.47
2019-04-03T07:58:25.335Z,15.27
2019-04-03T08:00:55.457Z,15.17
2019-04-03T08:03:24.434Z,14.13
2019-04-03T08:05:56.028Z,13.90
2019-04-03T08:08:26.637Z,13.73
2019-04-03T08:10:55.654Z,13.60
2019-04-03T08:13:24.620Z,13.27
2019-04-03T08:15:53.521Z,13.60
2019-04-03T08:18:22.464Z,13.10
2019-04-03T08:20:51.379Z,12.67
2019-04-03T08:23:20.924Z,13.77
2019-04-03T08:25:49.963Z,13.50
2019-04-03T08:28:19.139Z,13.23
2019-04-03T08:30:48.200Z,13.13
2019-04-03T08:33:19.792Z,12.90
2019-04-03T08:35:48.042Z,13.03
2019-04-03T08:38:17.136Z,13.60
2019-04-03T08:40:46.203Z,13.73
2019-04-03T08:43:15.261Z,12.90
2019-04-03T08:45:44.294Z,13.20
2019-04-03T08:48:14.965Z,12.77
2019-04-03T08:50:44.936Z,13.30
2019-04-03T08:53:14.202Z,12.53
2019-04-03T08:55:43.983Z,12.27
2019-04-03T08:58:13.992Z,12.70
2019-04-03T09:00:43.200Z,12.83
2019-04-03T09:03:14.300Z,12.60
2019-04-03T09:05:42.691Z,11.83
2019-04-03T09:08:11.599Z,12.40
2019-04-03T09:10:41.185Z,12.70
2019-04-03T09:13:18.042Z,11.60
2019-04-03T09:15:40.953Z,12.97
2019-04-03T09:18:10.102Z,12.33
2019-04-03T09:20:39.012Z,12.03
2019-04-03T09:23:07.939Z,13.23
2019-04-03T09:25:37.556Z,12.60
2019-04-03T09:28:06.490Z,13.97
2019-04-03T09:30:35.831Z,13.70
2019-04-03T09:33:04.965Z,14.13
2019-04-03T09:35:34.348Z,14.07
2019-04-03T09:38:03.262Z,14.03
2019-04-03T09:40:32.160Z,15.50
2019-04-03T09:43:01.004Z,16.03
2019-04-03T09:45:30.220Z,16.33
2019-04-03T09:47:59.234Z,17.40
2019-04-03T09:50:28.224Z,17.60
2019-04-03T09:52:57.167Z,19.30
2019-04-03T09:55:26.367Z,19.83
2019-04-03T09:57:55.245Z,20.73
2019-04-03T10:00:24.278Z,20.93
2019-04-03T10:02:53.327Z,20.03
2019-04-03T10:05:22.792Z,19.57
2019-04-03T10:07:51.759Z,20.50
2019-04-03T10:10:21.020Z,21.17
2019-04-03T10:12:49.876Z,22.10
2019-04-03T10:15:19.443Z,21.60
2019-04-03T10:17:48.796Z,22.30
2019-04-03T10:20:18.980Z,23.67
2019-04-03T10:22:48.603Z,22.03
2019-04-03T10:25:17.533Z,22.20
2019-04-03T10:27:46.653Z,22.60
2019-04-03T10:30:16.644Z,22.20
2019-04-03T10:32:45.711Z,21.63
2019-04-03T10:35:15.227Z,22.83
2019-04-03T10:37:46.310Z,21.73
2019-04-03T10:40:15.825Z,20.77
2019-04-03T10:42:45.134Z,20.67
2019-04-03T10:45:14.875Z,21.47
2019-04-03T10:47:44.795Z,19.90
2019-04-03T10:50:14.378Z,20.47
2019-04-03T10:52:47.915Z,22.00
2019-04-03T10:55:16.185Z,20.90
2019-04-03T10:57:45.443Z,21.00
2019-04-03T11:00:15.557Z,21.13
2019-04-03T11:02:45.106Z,22.13
2019-04-03T11:05:15.116Z,19.87
2019-04-03T11:07:44.177Z,19.20
2019-04-03T11:10:14.230Z,20.50
2019-04-03T11:12:43.524Z,21.43
2019-04-03T11:15:12.883Z,21.00
2019-04-03T11:17:42.127Z,19.83
2019-04-03T11:20:12.240Z,20.87
2019-04-03T11:22:42.760Z,20.33
2019-04-03T11:25:15.356Z,17.93
2019-04-03T11:27:45.047Z,18.97
2019-04-03T11:30:18.182Z,17.13
2019-04-03T11:32:45.939Z,18.03
2019-04-03T11:35:15.437Z,17.93
2019-04-03T11:37:44.837Z,17.10
2019-04-03T11:40:17.407Z,17.53
2019-04-03T11:42:45.855Z,16.63
2019-04-03T11:45:15.199Z,17.77
2019-04-03T11:47:46.174Z,19.20
2019-04-03T11:50:15.809Z,18.40
2019-04-03T11:52:46.572Z,18.23
2019-04-03T11:55:15.642Z,18.27
2019-04-03T11:57:47.449Z,20.43
2019-04-03T12:00:18.980Z,20.77
2019-04-03T12:02:52.359Z,22.23
2019-04-03T12:05:21.637Z,21.13
2019-04-03T12:07:50.628Z,19.43
2019-04-03T12:10:19.516Z,19.47
2019-04-03T12:12:49.226Z,18.43
2019-04-03T12:15:21.436Z,19.57
2019-04-03T12:17:49.762Z,19.10
2019-04-03T12:20:18.841Z,18.43
2019-04-03T12:22:49.765Z,17.47
2019-04-03T12:25:21.600Z,17.33
2019-04-03T12:27:50.852Z,17.40
2019-04-03T12:30:20.037Z,16.50
2019-04-03T12:32:50.219Z,17.10
2019-04-03T12:35:24.075Z,16.13
2019-04-03T12:37:52.951Z,17.13
2019-04-03T12:40:22.039Z,18.53
2019-04-03T12:42:57.503Z,16.50
2019-04-03T12:45:27.422Z,14.87
2019-04-03T12:48:02.515Z,15.23
2019-04-03T12:50:34.896Z,15.30
2019-04-03T12:53:18.168Z,14.53
2019-04-03T12:55:47.762Z,14.57
2019-04-03T12:58:20.539Z,14.37
2019-04-03T13:00:50.337Z,14.20
2019-04-03T13:03:23.566Z,13.20
2019-04-03T13:05:51.163Z,13.13
2019-04-03T13:08:21.660Z,13.00
2019-04-03T13:10:51.229Z,13.00
2019-04-03T13:13:20.503Z,13.13
2019-04-03T13:15:49.450Z,13.03
2019-04-03T13:18:18.269Z,13.80
2019-04-03T13:20:47.217Z,13.97
2019-04-03T13:23:16.086Z,13.80
2019-04-03T13:25:45.334Z,13.57
2019-04-03T13:28:14.793Z,13.73
2019-04-03T13:30:47.321Z,14.90
2019-04-03T13:33:17.651Z,13.43
2019-04-03T13:35:48.134Z,13.77
2019-04-03T13:38:17.418Z,12.80
2019-04-03T13:40:48.389Z,14.10
2019-04-03T13:43:21.026Z,12.23
2019-04-03T13:45:49.226Z,11.53
2019-04-03T13:48:18.476Z,10.60
2019-04-03T13:50:47.910Z,11.33
2019-04-03T13:53:18.376Z,11.23
2019-04-03T13:55:47.859Z,10.80
2019-04-03T13:58:21.140Z,10.90
2019-04-03T14:00:59.024Z,10.97
2019-04-03T14:03:22.688Z,11.43
2019-04-03T14:05:51.649Z,11.10
2019-04-03T14:08:21.002Z,12.27
2019-04-03T14:10:49.951Z,12.30
2019-04-03T14:13:18.939Z,13.30
2019-04-03T14:15:50.342Z,14.40
2019-04-03T14:18:22.546Z,13.60
2019-04-03T14:20:52.069Z,14.03
2019-04-03T14:23:21.433Z,13.70
2019-04-03T14:26:02.202Z,13.60
2019-04-03T14:28:23.454Z,14.27
2019-04-03T14:30:52.793Z,13.00
2019-04-03T14:33:41.775Z,14.60
2019-04-03T14:35:58.971Z,13.93
2019-04-03T14:38:33.055Z,15.00
2019-04-03T14:41:01.965Z,15.87
2019-04-03T14:43:34.572Z,15.90
2019-04-03T14:46:06.441Z,15.03
2019-04-03T14:48:39.423Z,15.87
2019-04-03T14:51:12.140Z,15.67
2019-04-03T14:53:41.302Z,16.03
2019-04-03T14:56:10.558Z,16.80
2019-04-03T14:58:39.483Z,15.90
2019-04-03T15:01:08.635Z,16.07
2019-04-03T15:03:37.559Z,17.00
2019-04-03T15:06:09.828Z,16.67
2019-04-03T15:08:38.984Z,16.60
2019-04-03T15:11:08.170Z,15.40
2019-04-03T15:13:37.704Z,14.80
2019-04-03T15:16:21.071Z,15.20
2019-04-03T15:18:52.711Z,14.50
2019-04-03T15:21:24.780Z,14.60
2019-04-03T15:23:56.590Z,15.37
2019-04-03T15:26:25.961Z,15.43
2019-04-03T15:28:58.042Z,15.97
2019-04-03T15:31:27.031Z,15.87
2019-04-03T15:33:56.309Z,15.97
2019-04-03T15:36:25.675Z,16.33
2019-04-03T15:38:54.619Z,15.13
2019-04-03T15:41:53.182Z,15.97
2019-04-03T15:44:22.377Z,15.40
2019-04-03T15:46:51.780Z,15.07
2019-04-03T15:49:21.608Z,14.97
2019-04-03T15:55:29.534Z,12.77
2019-04-03T15:57:59.031Z,12.57
2019-04-03T16:00:29.613Z,12.30
2019-04-03T16:02:59.120Z,12.50
2019-04-03T16:05:30.598Z,11.80
2019-04-03T16:08:00.704Z,10.50
2019-04-03T16:10:29.687Z,10.03
2019-04-03T16:13:01.147Z,10.03
2019-04-03T16:15:39.219Z,10.83
2019-04-03T16:18:12.421Z,10.40
2019-04-03T16:20:50.907Z,10.10
2019-04-03T16:23:19.882Z,9.90
2019-04-03T16:25:51.197Z,8.93
2019-04-03T16:28:23.278Z,8.93
2019-04-03T16:30:54.411Z,8.20
2019-04-03T16:33:24.927Z,8.40
2019-04-03T16:35:54.415Z,8.53
2019-04-03T16:38:24.040Z,7.63
2019-04-03T16:40:54.658Z,7.10
2019-04-03T16:43:30.039Z,7.47
2019-04-03T16:45:59.435Z,7.70
2019-04-03T16:49:24.977Z,8.27
2019-04-03T16:51:55.900Z,7.93
2019-04-03T16:57:30.058Z,7.40
2019-04-03T16:59:59.271Z,7.47
2019-04-03T17:02:29.993Z,7.87
2019-04-03T17:05:36.244Z,7.60
2019-04-03T17:08:05.143Z,7.87
2019-04-03T17:10:34.174Z,7.67
2019-04-03T17:13:03.260Z,7.57
2019-04-03T17:15:34.162Z,7.83
2019-04-03T17:18:02.772Z,7.93
2019-04-03T17:20:32.077Z,8.47
2019-04-03T17:23:00.930Z,8.10
2019-04-03T17:25:38.207Z,9.17
2019-04-03T17:28:06.101Z,8.83
2019-04-03T17:30:31.796Z,8.37
2019-04-03T17:33:02.967Z,8.43
2019-04-03T17:35:34.691Z,8.43
2019-04-03T17:38:04.680Z,8.47
2019-04-03T17:40:37.280Z,8.53
2019-04-03T17:43:06.248Z,8.93
2019-04-03T17:45:35.302Z,8.97
2019-04-03T17:48:04.604Z,9.00
2019-04-03T17:50:33.468Z,8.90
2019-04-03T17:53:02.959Z,8.83
2019-04-03T17:55:31.984Z,9.63
2019-04-03T17:58:00.954Z,9.07
2019-04-03T18:00:29.996Z,8.77
2019-04-03T18:03:00.624Z,9.20
2019-04-03T18:05:29.482Z,9.67
2019-04-03T18:07:58.905Z,9.40
2019-04-03T18:10:30.011Z,9.67
2019-04-03T18:12:59.054Z,10.30
2019-04-03T18:15:32.924Z,10.47
2019-04-03T18:18:04.233Z,10.13
2019-04-03T18:20:33.155Z,9.87
2019-04-03T18:23:13.356Z,9.70
2019-04-03T18:25:47.759Z,10.70
2019-04-03T18:28:20.968Z,9.67
2019-04-03T18:30:51.421Z,10.40
2019-04-03T18:33:20.781Z,10.10
2019-04-03T18:35:51.056Z,10.07
2019-04-03T18:38:20.204Z,10.43
2019-04-03T18:40:49.998Z,10.43
2019-04-03T18:43:21.615Z,11.10
2019-04-03T18:45:50.828Z,10.70
2019-04-03T18:48:19.887Z,10.73
2019-04-03T18:50:52.155Z,11.43
2019-04-03T18:53:22.665Z,11.90
2019-04-03T18:55:51.755Z,11.73
2019-04-03T18:58:25.067Z,12.50
2019-04-03T19:00:55.996Z,12.43
2019-04-03T19:03:26.783Z,12.50
2019-04-03T19:06:00.220Z,12.37
2019-04-03T19:08:29.186Z,12.17
2019-04-03T19:11:09.605Z,12.47
2019-04-03T19:13:32.579Z,14.03
2019-04-03T19:16:08.337Z,13.80
2019-04-03T19:18:46.620Z,12.70
2019-04-03T19:21:24.593Z,13.57
2019-04-03T19:24:09.172Z,12.50
2019-04-03T19:26:41.148Z,12.37
2019-04-03T19:29:14.388Z,11.63
2019-04-03T19:31:50.224Z,11.93
2019-04-03T19:34:27.267Z,11.70
2019-04-03T19:37:14.214Z,12.10
2019-04-03T19:39:46.846Z,11.93
2019-04-03T19:42:19.091Z,12.40
2019-04-03T19:45:01.596Z,11.47
2019-04-03T19:47:30.614Z,13.23
2019-04-03T19:50:00.787Z,12.00
2019-04-03T19:52:32.167Z,12.70
2019-04-03T19:55:00.653Z,14.37
2019-04-03T19:57:29.536Z,14.90
2019-04-03T20:00:02.742Z,15.40
2019-04-03T20:02:30.797Z,16.27
2019-04-03T20:04:59.720Z,18.20
2019-04-03T20:07:28.653Z,18.97
2019-04-03T20:09:57.508Z,19.00
2019-04-03T20:12:26.497Z,18.63
2019-04-03T20:14:58.385Z,19.33
2019-04-03T20:17:26.166Z,19.10
2019-04-03T20:19:55.939Z,18.93
2019-04-03T20:22:25.760Z,19.10
2019-04-03T20:25:00.125Z,19.37
2019-04-03T20:27:25.423Z,18.83
2019-04-03T20:29:54.480Z,19.73
2019-04-03T20:32:28.934Z,20.53
2019-04-03T20:34:58.640Z,19.77
2019-04-03T20:37:27.467Z,18.87
2019-04-03T20:39:59.692Z,19.77
2019-04-03T20:42:27.179Z,19.90
2019-04-03T20:44:56.783Z,20.50
2019-04-03T20:47:26.963Z,20.10
2019-04-03T20:49:56.512Z,20.10
2019-04-03T20:52:25.761Z,21.33
2019-04-03T20:54:54.817Z,21.33
2019-04-03T20:57:23.750Z,20.83
2019-04-03T21:00:01.900Z,22.13
2019-04-03T21:02:23.787Z,22.73
2019-04-03T21:04:55.519Z,22.03
2019-04-03T21:07:27.551Z,22.03
2019-04-03T21:09:56.429Z,22.90
2019-04-03T21:12:26.772Z,22.83
2019-04-03T21:15:07.655Z,22.50
2019-04-03T21:17:26.339Z,22.73
2019-04-03T21:19:55.254Z,22.50
2019-04-03T21:22:24.385Z,22.50
2019-04-03T21:24:56.277Z,23.97
2019-04-03T21:27:27.341Z,24.67
2019-04-03T21:29:58.189Z,23.03
2019-04-03T21:32:28.650Z,22.90
2019-04-03T21:34:57.536Z,23.47
2019-04-03T21:37:26.443Z,24.80
2019-04-03T21:39:55.418Z,25.50
2019-04-03T21:42:26.996Z,25.77
2019-04-03T21:44:56.414Z,25.50
2019-04-03T21:47:25.331Z,25.90
2019-04-03T21:49:54.263Z,24.80
2019-04-03T21:52:23.327Z,24.93
2019-04-03T21:54:52.663Z,25.00
2019-04-03T21:57:21.664Z,24.97
2019-04-03T21:59:50.676Z,26.07
2019-04-03T22:02:19.818Z,26.23
2019-04-03T22:04:48.912Z,24.70
2019-04-03T22:07:17.833Z,26.33
2019-04-03T22:09:46.774Z,26.63
2019-04-03T22:12:21.925Z,25.73
2019-04-03T22:14:52.494Z,26.23
2019-04-03T22:17:22.036Z,27.33
2019-04-03T22:19:51.422Z,28.00
2019-04-03T22:22:20.457Z,26.70
2019-04-03T22:24:49.690Z,27.80
2019-04-03T22:27:18.545Z,27.93
2019-04-03T22:29:50.622Z,28.80
2019-04-03T22:32:18.380Z,28.87
2019-04-03T22:34:47.246Z,28.10
2019-04-03T22:37:19.018Z,28.30
2019-04-03T22:39:47.936Z,29.37
2019-04-03T22:42:16.992Z,28.93
2019-04-03T22:44:48.317Z,28.93
2019-04-03T22:47:17.449Z,29.70
2019-04-03T22:49:46.336Z,29.70
2019-04-03T22:52:22.000Z,30.13
2019-04-03T22:55:00.314Z,29.07
2019-04-03T22:57:33.959Z,30.90
2019-04-03T23:09:56.844Z,29.33
2019-04-03T23:12:26.172Z,28.93
2019-04-03T23:15:18.001Z,29.10
2019-04-03T23:17:46.888Z,30.30
2019-04-03T23:20:15.855Z,29.47
2019-04-03T23:22:44.701Z,30.33
2019-04-03T23:25:13.691Z,29.93
2019-04-03T23:27:42.718Z,29.10
2019-04-03T23:30:12.112Z,30.23
2019-04-03T23:32:40.983Z,30.00
2019-04-03T23:35:10.153Z,31.43
2019-04-03T23:37:39.083Z,31.30
2019-04-03T23:40:08.085Z,31.30
2019-04-03T23:42:37.831Z,30.17
2019-04-03T23:45:07.709Z,31.23
2019-04-03T23:47:36.819Z,35.77
2019-04-03T23:50:06.302Z,30.53
2019-04-03T23:52:35.245Z,32.73
2019-04-03T23:55:05.300Z,32.90
2019-04-03T23:57:34.255Z,33.60
